Hyundai Long Beach — D5EZ2 — position and weather

sailwx.info

Track history (hours):
 
Tides and Currents Weather Stations Pressure Air Temp Water Temp Dewpoint Dewpoint Depression Visibility Wind Speed Wind Dir Waves Ship Positions

Hyundai Long Beach

Last reported at 2018-Feb-19 16:34 UTC. Time now 2018-Feb-25 21:20 UTC.
Position N 48°31' W 126°19'.

Length 293 m; draft 12.4 m.

Type: Cargo ship. MMSI: 636016200.

Date/timePositionNaut miles runAvg speedWind from/ knotsBaromVisibWave heightAir tempDewpointWater temp
2018-Feb-19 16:34N 48°31' W 126°19'117.9
2018-Feb-19 16:30N 48°31' W 126°17'918.7
2018-Feb-19 16:00N 48°31' W 126°03'918.9
2018-Feb-19 15:30N 48°31' W 125°49'1019.2
2018-Feb-19 15:00N 48°31' W 125°34'919.0
2018-Feb-19 14:30N 48°31' W 125°20'1019.0
2018-Feb-19 14:00N 48°31' W 125°05'918.7
2018-Feb-19 13:31N 48°31' W 124°52'918.7
2018-Feb-19 13:01N 48°29' W 124°38'918.9
2018-Feb-19 12:30N 48°26' W 124°24'918.7
2018-Feb-19 12:00N 48°22' W 124°11'1018.7
2018-Feb-19 11:30N 48°18' W 123°58'1018.9
2018-Feb-19 10:59N 48°16' W 123°44'1714.9
2018-Feb-19 09:52N 48°08' W 123°22'818.8
2018-Feb-19 09:27N 48°11' W 123°11'1019.9
2018-Feb-19 08:57N 48°12' W 122°57'1120.4
2018-Feb-19 08:25N 48°08' W 122°41'920.6
2018-Feb-19 07:58N 47°60' W 122°36'919.4
2018-Feb-19 07:30N 47°53' W 122°28'918.6
2018-Feb-19 07:00N 47°43' W 122°26'918.6
2018-Feb-19 06:30N 47°34' W 122°26'917.5
2018-Feb-19 06:00N 47°26' W 122°23'713.8
2018-Feb-19 05:30N 47°19' W 122°27'3 5.4
2018-Feb-19 05:00N 47°17' W 122°25'1 2.0
2018-Feb-19 04:30N 47°16' W 122°24'1 0.2
2018-Feb-18 23:56N 47°16' W 122°23'0 0.0
2018-Feb-18 22:35N 47°16' W 122°23'0 0.0
2018-Feb-18 13:29N 47°16' W 122°23'0 0.0
2018-Feb-18 12:29N 47°16' W 122°23'0 0.0
2018-Feb-18 11:59N 47°16' W 122°23'0 0.0
2018-Feb-18 11:29N 47°16' W 122°23'0 0.0
2018-Feb-18 10:56N 47°16' W 122°23'0 0.0
2018-Feb-18 04:14N 47°16' W 122°23'0 0.0
2018-Feb-18 03:56N 47°16' W 122°23'0 0.0
2018-Feb-18 03:17N 47°16' W 122°23'0 0.0
2018-Feb-18 02:44N 47°16' W 122°23'0 0.0
2018-Feb-18 00:23N 47°16' W 122°23'0 0.0
2018-Feb-17 23:59N 47°16' W 122°23'0 0.0
2018-Feb-17 22:23N 47°16' W 122°23'0 0.0
2018-Feb-17 20:59N 47°16' W 122°23'0 0.0
2018-Feb-17 19:17N 47°16' W 122°23'0 0.0
2018-Feb-17 18:47N 47°16' W 122°23'0 0.0
2018-Feb-17 18:29N 47°16' W 122°23'0 0.0
2018-Feb-17 17:47N 47°16' W 122°23'0 0.0
2018-Feb-17 17:26N 47°16' W 122°23'0 0.0
2018-Feb-17 16:50N 47°16' W 122°23'0 0.0
2018-Feb-17 16:26N 47°16' W 122°23'0 0.0
2018-Feb-17 15:38N 47°16' W 122°23'0 0.1
2018-Feb-17 15:26N 47°16' W 122°23'0 0.0
2018-Feb-17 14:56N 47°16' W 122°23'0 0.0
2018-Feb-17 14:27N 47°16' W 122°23'1 2.1
2018-Feb-17 14:00N 47°16' W 122°24'1 2.5
2018-Feb-17 13:30N 47°17' W 122°26'2 3.7
2018-Feb-17 13:00N 47°19' W 122°27'612.3
2018-Feb-17 12:30N 47°24' W 122°22'714.7
2018-Feb-17 12:00N 47°30' W 122°26'917.7
2018-Feb-17 11:30N 47°39' W 122°28'919.1
2018-Feb-17 11:01N 47°49' W 122°27'1020.1
2018-Feb-17 10:31N 47°57' W 122°34'1221.5
2018-Feb-17 09:56N 48°08' W 122°43'921.2
2018-Feb-17 09:30N 48°11' W 122°56'1020.8
2018-Feb-17 09:00N 48°11' W 123°12'815.7
2018-Feb-17 08:30N 48°10' W 123°23'4 7.1
2018-Feb-17 07:57N 48°12' W 123°29'511.0
2018-Feb-17 07:30N 48°13' W 123°36'611.4
2018-Feb-17 07:00N 48°13' W 123°44'610.9
2018-Feb-17 06:30N 48°13' W 123°52'611.1
2018-Feb-17 05:59N 48°15' W 124°01'611.9
2018-Feb-17 05:30N 48°17' W 124°09'611.6
2018-Feb-17 05:00N 48°20' W 124°17'611.5
2018-Feb-17 04:26N 48°23' W 124°25'512.1
2018-Feb-17 04:00N 48°25' W 124°32'611.6
2018-Feb-17 03:30N 48°27' W 124°40'611.5
2018-Feb-17 03:00N 48°28' W 124°49'612.3
2018-Feb-17 02:29N 48°28' W 124°59'611.9
2018-Feb-17 02:00N 48°23' W 125°04'612.2
2018-Feb-17 01:30N 48°18' W 125°08'612.4
2018-Feb-17 00:59N 48°12' W 125°13'7212.6
2018-Feb-16 19:13N 46°60' W 125°18'1 4.0
2018-Feb-16 19:00N 46°59' W 125°17'510.6
2018-Feb-16 18:30N 46°54' W 125°17'712.4
2018-Feb-16 17:59N 46°47' W 125°17'712.5
2018-Feb-16 17:26N 46°40' W 125°17'612.8
2018-Feb-16 17:00N 46°35' W 125°17'1112.8
2018-Feb-16 16:11N 46°24' W 125°17'413.3
2018-Feb-16 15:53N 46°20' W 125°17'512.9
2018-Feb-16 15:30N 46°15' W 125°16'612.8
2018-Feb-16 15:00N 46°09' W 125°16'612.8
2018-Feb-16 14:31N 46°03' W 125°16'612.7
2018-Feb-16 14:01N 45°56' W 125°16'713.0
2018-Feb-16 13:31N 45°50' W 125°16'713.1
2018-Feb-16 13:00N 45°43' W 125°16'612.9
2018-Feb-16 12:30N 45°37' W 125°16'912.7
2018-Feb-16 11:47N 45°28' W 125°16'513.1
2018-Feb-16 11:24N 45°22' W 125°16'42212.6
2018-Feb-15 01:57N 38°23' W 124°12'612.9
2018-Feb-15 01:30N 38°18' W 124°10'613.0
2018-Feb-15 01:00N 38°12' W 124°07'713.1
2018-Feb-15 00:30N 38°06' W 124°04'612.9
2018-Feb-15 00:00N 37°59' W 124°01'713.3
2018-Feb-14 23:30N 37°53' W 123°59'713.2
2018-Feb-14 23:00N 37°47' W 123°55'713.2
2018-Feb-14 22:30N 37°42' W 123°50'913.3
2018-Feb-14 21:47N 37°34' W 123°44'2513.6
2018-Feb-14 19:57N 37°13' W 123°27'613.3
2018-Feb-14 19:30N 37°08' W 123°23'713.2
2018-Feb-14 19:00N 37°02' W 123°19'713.3
2018-Feb-14 18:30N 36°57' W 123°14'713.5
2018-Feb-14 18:00N 36°51' W 123°10'713.4
2018-Feb-14 17:30N 36°45' W 123°05'713.3
2018-Feb-14 17:00N 36°40' W 123°01'713.3
2018-Feb-14 16:30N 36°34' W 122°56'713.2
2018-Feb-14 16:00N 36°29' W 122°52'612.8
2018-Feb-14 15:30N 36°23' W 122°47'612.6
2018-Feb-14 15:00N 36°18' W 122°43'612.5
2018-Feb-14 14:30N 36°13' W 122°39'612.5
2018-Feb-14 14:00N 36°07' W 122°34'712.3
2018-Feb-14 13:28N 36°02' W 122°30'4812.6
2018-Feb-14 09:42N 35°23' W 121°56'2312.6
2018-Feb-14 07:52N 35°04' W 121°40'612.9
2018-Feb-14 07:25N 34°59' W 121°36'512.9
2018-Feb-14 07:00N 34°55' W 121°32'612.9
2018-Feb-14 06:30N 34°50' W 121°28'713.2
2018-Feb-14 06:00N 34°44' W 121°23'612.9
2018-Feb-14 05:30N 34°39' W 121°18'713.2
2018-Feb-14 05:00N 34°34' W 121°13'612.4
2018-Feb-14 04:30N 34°30' W 121°08'713.1
2018-Feb-14 04:00N 34°28' W 121°00'613.0
2018-Feb-14 03:30N 34°27' W 120°53'713.0
2018-Feb-14 02:59N 34°25' W 120°45'712.6
2018-Feb-14 02:27N 34°23' W 120°37'612.8
2018-Feb-14 01:59N 34°21' W 120°30'713.2
2018-Feb-14 01:28N 34°19' W 120°22'713.3
2018-Feb-14 00:56N 34°18' W 120°14'713.2
2018-Feb-14 00:25N 34°16' W 120°06'612.6
2018-Feb-13 23:55N 34°14' W 119°58'512.6
2018-Feb-13 23:29N 34°13' W 119°52'612.7
2018-Feb-13 23:00N 34°11' W 119°45'712.5
2018-Feb-13 22:27N 34°09' W 119°37'612.6
2018-Feb-13 22:00N 34°08' W 119°30'712.6
2018-Feb-13 21:27N 34°06' W 119°22'612.5
2018-Feb-13 20:58N 34°04' W 119°15'3610.6
2018-Feb-13 17:33N 33°46' W 118°37'110.6
2018-Feb-13 17:28N 33°46' W 118°36'510.6
2018-Feb-13 17:00N 33°43' W 118°31'510.6
2018-Feb-13 16:30N 33°41' W 118°26'510.6
2018-Feb-13 16:00N 33°38' W 118°20'510.2
2018-Feb-13 15:29N 33°38' W 118°14'510.0
2018-Feb-13 15:00N 33°42' W 118°11'3 6.3
2018-Feb-13 14:30N 33°45' W 118°13'1 2.2
2018-Feb-13 14:00N 33°45' W 118°14'0 0.0
2018-Feb-13 13:28N 33°45' W 118°14'0 0.0
2018-Feb-13 12:58N 33°45' W 118°14'0 0.0
2018-Feb-13 12:28N 33°45' W 118°14'0 0.0
2018-Feb-13 11:58N 33°45' W 118°14'0 0.0
2018-Feb-13 11:28N 33°45' W 118°14'0 0.0
2018-Feb-13 10:58N 33°45' W 118°14'0 0.0
2018-Feb-13 10:25N 33°45' W 118°14'0 0.0
2018-Feb-13 09:58N 33°45' W 118°14'0 0.0
2018-Feb-13 09:28N 33°45' W 118°14'0 0.0
2018-Feb-13 08:58N 33°45' W 118°14'0 0.1
2018-Feb-13 08:28N 33°45' W 118°14'0 0.1
2018-Feb-13 07:58N 33°45' W 118°14'0 0.0
2018-Feb-13 07:25N 33°45' W 118°14'0 0.0
2018-Feb-13 06:58N 33°45' W 118°14'0 0.1
2018-Feb-13 06:28N 33°45' W 118°14'0 0.1
2018-Feb-13 05:58N 33°45' W 118°14'0 0.0
2018-Feb-13 05:28N 33°45' W 118°14'0 0.0
2018-Feb-13 04:58N 33°45' W 118°14'0 0.0
2018-Feb-13 04:28N 33°45' W 118°14'0 0.0
2018-Feb-13 03:52N 33°45' W 118°14'0 0.0
2018-Feb-13 03:28N 33°45' W 118°14'0 0.0
2018-Feb-13 02:58N 33°45' W 118°14'0 0.0
2018-Feb-13 02:28N 33°45' W 118°14'0 0.0
2018-Feb-13 01:58N 33°45' W 118°14'0 0.0
2018-Feb-13 01:28N 33°45' W 118°14'0 0.0
2018-Feb-13 00:58N 33°45' W 118°14'0 0.0
2018-Feb-13 00:25N 33°45' W 118°14'0 0.0
2018-Feb-12 23:58N 33°45' W 118°14'0 0.0
2018-Feb-12 23:28N 33°45' W 118°14'0 0.0
2018-Feb-12 22:58N 33°45' W 118°14'0 0.0
2018-Feb-12 22:28N 33°45' W 118°14'0 0.0
2018-Feb-12 21:58N 33°45' W 118°14'0 0.0
2018-Feb-12 21:28N 33°45' W 118°14'0 0.0
2018-Feb-12 20:58N 33°45' W 118°14'0 0.0
2018-Feb-12 20:25N 33°45' W 118°14'0 0.1
2018-Feb-12 19:58N 33°45' W 118°14'0 0.1
2018-Feb-12 19:28N 33°45' W 118°14'0 0.0
2018-Feb-12 18:58N 33°45' W 118°14'0 0.1
2018-Feb-12 18:28N 33°45' W 118°14'0 0.1
2018-Feb-12 17:58N 33°45' W 118°14'0 0.0
2018-Feb-12 17:25N 33°45' W 118°14'0 0.0
2018-Feb-12 16:58N 33°45' W 118°14'0 0.0
2018-Feb-12 16:28N 33°45' W 118°14'0 0.1
2018-Feb-12 15:58N 33°45' W 118°14'0 0.1
2018-Feb-12 15:16N 33°45' W 118°14'0 0.0
2018-Feb-12 14:58N 33°45' W 118°14'0 0.0
2018-Feb-12 14:28N 33°45' W 118°14'0 0.0
2018-Feb-12 13:58N 33°45' W 118°14'0 0.0
2018-Feb-12 13:28N 33°45' W 118°14'0 0.0
2018-Feb-12 12:58N 33°45' W 118°14'0 0.0
2018-Feb-12 12:28N 33°45' W 118°14'0 0.1
2018-Feb-12 11:55N 33°45' W 118°14'0 0.1
2018-Feb-12 11:28N 33°45' W 118°14'0 0.0
2018-Feb-12 10:58N 33°45' W 118°14'0 0.0
2018-Feb-12 10:28N 33°45' W 118°14'0 0.0
2018-Feb-12 09:58N 33°45' W 118°14'0 0.0
2018-Feb-12 09:28N 33°45' W 118°14'0 0.0
2018-Feb-12 08:52N 33°45' W 118°14'0 0.0
2018-Feb-12 08:04N 33°45' W 118°14'0 0.0
2018-Feb-12 07:58N 33°45' W 118°14'0 0.0
2018-Feb-12 07:28N 33°45' W 118°14'0 0.0
2018-Feb-12 06:58N 33°45' W 118°14'0 0.1
2018-Feb-12 06:13N 33°45' W 118°14'0 0.2
2018-Feb-12 05:58N 33°45' W 118°14'0 0.0
2018-Feb-12 05:19N 33°45' W 118°14'0 0.0
2018-Feb-12 04:55N 33°45' W 118°14'0 0.0
2018-Feb-12 04:25N 33°45' W 118°14'0 0.0
2018-Feb-12 03:55N 33°45' W 118°14'0 0.0
2018-Feb-12 03:28N 33°45' W 118°14'0 0.0
2018-Feb-12 02:58N 33°45' W 118°14'0 0.1
2018-Feb-12 02:28N 33°45' W 118°14'0 0.1
2018-Feb-12 01:58N 33°45' W 118°14'0 0.1
2018-Feb-12 01:25N 33°45' W 118°14'0 0.1
2018-Feb-12 00:58N 33°45' W 118°14'0 0.0
2018-Feb-12 00:28N 33°45' W 118°14'0 0.0
2018-Feb-11 23:58N 33°45' W 118°14'0 0.1
2018-Feb-11 23:28N 33°45' W 118°14'0 0.1
2018-Feb-11 22:58N 33°45' W 118°14'0 0.0
2018-Feb-11 22:28N 33°45' W 118°14'0 0.0
2018-Feb-11 21:58N 33°45' W 118°14'0 0.0
2018-Feb-11 21:28N 33°45' W 118°14'0 0.0
2018-Feb-11 20:58N 33°45' W 118°14'0 0.0
2018-Feb-11 20:28N 33°45' W 118°14'0 0.0
2018-Feb-11 19:58N 33°45' W 118°14'0 0.0
2018-Feb-11 19:28N 33°45' W 118°14'0 0.0
2018-Feb-11 18:58N 33°45' W 118°14'0 0.0
2018-Feb-11 18:28N 33°45' W 118°14'0 0.0
2018-Feb-11 17:55N 33°45' W 118°14'0 0.0
2018-Feb-11 17:28N 33°45' W 118°14'0 0.0
2018-Feb-11 16:58N 33°45' W 118°14'0 0.0
2018-Feb-11 16:25N 33°45' W 118°14'0 0.0
2018-Feb-11 15:58N 33°45' W 118°14'0 0.0
2018-Feb-11 15:28N 33°45' W 118°14'0 0.0
2018-Feb-11 14:58N 33°45' W 118°14'0 0.0
2018-Feb-11 14:28N 33°45' W 118°14'0 0.0
2018-Feb-11 13:58N 33°45' W 118°14'0 0.0
2018-Feb-11 13:28N 33°45' W 118°14'0 0.0
2018-Feb-11 12:58N 33°45' W 118°14'0 0.0
2018-Feb-11 12:25N 33°45' W 118°14'0 0.0
2018-Feb-11 11:58N 33°45' W 118°14'0 0.0
2018-Feb-11 11:25N 33°45' W 118°14'0 0.0
2018-Feb-11 10:58N 33°45' W 118°14'0 0.0
2018-Feb-11 10:22N 33°45' W 118°14'0 0.0
2018-Feb-11 09:55N 33°45' W 118°14'0 0.0
2018-Feb-11 09:25N 33°45' W 118°14'0 0.0
2018-Feb-11 08:55N 33°45' W 118°14'0 0.1
2018-Feb-11 08:28N 33°45' W 118°14'0 0.1
2018-Feb-11 07:58N 33°45' W 118°14'0 0.0
2018-Feb-11 07:25N 33°45' W 118°14'0 0.0
2018-Feb-11 06:58N 33°45' W 118°14'0 0.0
2018-Feb-11 06:28N 33°45' W 118°14'0 0.0
2018-Feb-11 05:58N 33°45' W 118°14'0 0.0
2018-Feb-11 05:28N 33°45' W 118°14'0 0.0
2018-Feb-11 04:55N 33°45' W 118°14'0 0.0
2018-Feb-11 04:28N 33°45' W 118°14'0 0.1
2018-Feb-11 03:55N 33°45' W 118°14'0 0.1
2018-Feb-11 03:28N 33°45' W 118°14'0 0.0
2018-Feb-11 02:58N 33°45' W 118°14'0 0.0
2018-Feb-11 02:28N 33°45' W 118°14'0 0.0
2018-Feb-11 01:58N 33°45' W 118°14'0 0.0
2018-Feb-11 01:28N 33°45' W 118°14'0 0.0
2018-Feb-11 00:58N 33°45' W 118°14'0 0.0
2018-Feb-11 00:28N 33°45' W 118°14'0 0.0
2018-Feb-10 23:58N 33°45' W 118°14'0 0.0
2018-Feb-10 23:28N 33°45' W 118°14'0 0.0
2018-Feb-10 22:58N 33°45' W 118°14'0 0.0
2018-Feb-10 22:28N 33°45' W 118°14'0 0.0
2018-Feb-10 21:55N 33°45' W 118°14'0 0.0
2018-Feb-10 21:28N 33°45' W 118°14'0 0.1
2018-Feb-10 20:58N 33°45' W 118°14'0 0.1
2018-Feb-10 20:25N 33°45' W 118°14'0 0.1
2018-Feb-10 19:58N 33°45' W 118°14'0 0.1
2018-Feb-10 19:28N 33°45' W 118°14'0 0.0
2018-Feb-10 18:58N 33°45' W 118°14'0 0.0
2018-Feb-10 18:28N 33°45' W 118°14'0 0.0
2018-Feb-10 17:58N 33°45' W 118°14'0 0.0
2018-Feb-10 17:28N 33°45' W 118°14'0 0.0
2018-Feb-10 16:58N 33°45' W 118°14'0 0.0
2018-Feb-10 16:28N 33°45' W 118°14'0 0.0
2018-Feb-10 15:58N 33°45' W 118°14'0 0.0
2018-Feb-10 15:28N 33°45' W 118°14'0 0.0
2018-Feb-10 14:58N 33°45' W 118°14'0 0.0
2018-Feb-10 14:28N 33°45' W 118°14'0 0.1
2018-Feb-10 14:00N 33°45' W 118°14'1 2.0
2018-Feb-10 13:30N 33°45' W 118°13'4 7.7
2018-Feb-10 13:00N 33°41' W 118°11'3 7.0
2018-Feb-10 12:30N 33°38' W 118°12'3 5.7
2018-Feb-10 12:00N 33°37' W 118°15'3 6.4
2018-Feb-10 11:29N 33°36' W 118°19'4 7.6
2018-Feb-10 11:00N 33°37' W 118°23'5 8.9
2018-Feb-10 10:29N 33°39' W 118°28'4 8.5
2018-Feb-10 10:00N 33°41' W 118°32'4 8.7
2018-Feb-10 09:30N 33°43' W 118°37'4 8.6
2018-Feb-10 09:00N 33°45' W 118°41'510.4
2018-Feb-10 08:30N 33°48' W 118°47'611.4
2018-Feb-10 08:00N 33°51' W 118°53'611.4
2018-Feb-10 07:30N 33°54' W 118°59'611.7
2018-Feb-10 07:00N 33°57' W 119°05'611.7
2018-Feb-10 06:29N 33°60' W 119°11'511.2
2018-Feb-10 06:00N 34°02' W 119°17'612.1
2018-Feb-10 05:30N 34°04' W 119°24'612.8
2018-Feb-10 05:00N 34°06' W 119°31'713.0
2018-Feb-10 04:30N 34°07' W 119°39'713.8
2018-Feb-10 04:00N 34°09' W 119°47'713.8
2018-Feb-10 03:30N 34°11' W 119°55'713.6
2018-Feb-10 03:00N 34°13' W 120°03'713.6
2018-Feb-10 02:31N 34°15' W 120°11'713.3
2018-Feb-10 02:00N 34°16' W 120°19'713.4
2018-Feb-10 01:30N 34°18' W 120°26'611.6
2018-Feb-10 00:58N 34°20' W 120°34'4 7.9
2018-Feb-10 00:29N 34°21' W 120°38'713.6
2018-Feb-09 23:59N 34°23' W 120°46'714.2
2018-Feb-09 23:30N 34°24' W 120°54'815.0
2018-Feb-09 23:00N 34°24' W 121°03'415.2
2018-Feb-09 22:44N 34°24' W 121°08'4814.8
2018-Feb-09 19:30N 34°24' W 122°06'1514.7
2018-Feb-09 18:30N 34°24' W 122°24'  
Track history (hours):
 
Tides and Currents Weather Stations Pressure Air Temp Water Temp Dewpoint Dewpoint Depression Visibility Wind Speed Wind Dir Waves Ship Positions

Hyundai Long Beach

Last reported at 2018-Feb-19 16:34 UTC. Time now 2018-Feb-25 21:20 UTC.
Position N 48°31' W 126°19'.

Length 293 m; draft 12.4 m.

Type: Cargo ship. MMSI: 636016200.

Date/timePositionNaut miles runAvg speedWind from/ knotsBaromVisibWave heightAir tempDewpointWater temp
2018-Feb-19 16:34N 48°31' W 126°19'117.9
2018-Feb-19 16:30N 48°31' W 126°17'918.7
2018-Feb-19 16:00N 48°31' W 126°03'918.9
2018-Feb-19 15:30N 48°31' W 125°49'1019.2
2018-Feb-19 15:00N 48°31' W 125°34'919.0
2018-Feb-19 14:30N 48°31' W 125°20'1019.0
2018-Feb-19 14:00N 48°31' W 125°05'918.7
2018-Feb-19 13:31N 48°31' W 124°52'918.7
2018-Feb-19 13:01N 48°29' W 124°38'918.9
2018-Feb-19 12:30N 48°26' W 124°24'918.7
2018-Feb-19 12:00N 48°22' W 124°11'1018.7
2018-Feb-19 11:30N 48°18' W 123°58'1018.9
2018-Feb-19 10:59N 48°16' W 123°44'1714.9
2018-Feb-19 09:52N 48°08' W 123°22'818.8
2018-Feb-19 09:27N 48°11' W 123°11'1019.9
2018-Feb-19 08:57N 48°12' W 122°57'1120.4
2018-Feb-19 08:25N 48°08' W 122°41'920.6
2018-Feb-19 07:58N 47°60' W 122°36'919.4
2018-Feb-19 07:30N 47°53' W 122°28'918.6
2018-Feb-19 07:00N 47°43' W 122°26'918.6
2018-Feb-19 06:30N 47°34' W 122°26'917.5
2018-Feb-19 06:00N 47°26' W 122°23'713.8
2018-Feb-19 05:30N 47°19' W 122°27'3 5.4
2018-Feb-19 05:00N 47°17' W 122°25'1 2.0
2018-Feb-19 04:30N 47°16' W 122°24'1 0.2
2018-Feb-18 23:56N 47°16' W 122°23'0 0.0
2018-Feb-18 22:35N 47°16' W 122°23'0 0.0
2018-Feb-18 13:29N 47°16' W 122°23'0 0.0
2018-Feb-18 12:29N 47°16' W 122°23'0 0.0
2018-Feb-18 11:59N 47°16' W 122°23'0 0.0
2018-Feb-18 11:29N 47°16' W 122°23'0 0.0
2018-Feb-18 10:56N 47°16' W 122°23'0 0.0
2018-Feb-18 04:14N 47°16' W 122°23'0 0.0
2018-Feb-18 03:56N 47°16' W 122°23'0 0.0
2018-Feb-18 03:17N 47°16' W 122°23'0 0.0
2018-Feb-18 02:44N 47°16' W 122°23'0 0.0
2018-Feb-18 00:23N 47°16' W 122°23'0 0.0
2018-Feb-17 23:59N 47°16' W 122°23'0 0.0
2018-Feb-17 22:23N 47°16' W 122°23'0 0.0
2018-Feb-17 20:59N 47°16' W 122°23'0 0.0
2018-Feb-17 19:17N 47°16' W 122°23'0 0.0
2018-Feb-17 18:47N 47°16' W 122°23'0 0.0
2018-Feb-17 18:29N 47°16' W 122°23'0 0.0
2018-Feb-17 17:47N 47°16' W 122°23'0 0.0
2018-Feb-17 17:26N 47°16' W 122°23'0 0.0
2018-Feb-17 16:50N 47°16' W 122°23'0 0.0
2018-Feb-17 16:26N 47°16' W 122°23'0 0.0
2018-Feb-17 15:38N 47°16' W 122°23'0 0.1
2018-Feb-17 15:26N 47°16' W 122°23'0 0.0
2018-Feb-17 14:56N 47°16' W 122°23'0 0.0
2018-Feb-17 14:27N 47°16' W 122°23'1 2.1
2018-Feb-17 14:00N 47°16' W 122°24'1 2.5
2018-Feb-17 13:30N 47°17' W 122°26'2 3.7
2018-Feb-17 13:00N 47°19' W 122°27'612.3
2018-Feb-17 12:30N 47°24' W 122°22'714.7
2018-Feb-17 12:00N 47°30' W 122°26'917.7
2018-Feb-17 11:30N 47°39' W 122°28'919.1
2018-Feb-17 11:01N 47°49' W 122°27'1020.1
2018-Feb-17 10:31N 47°57' W 122°34'1221.5
2018-Feb-17 09:56N 48°08' W 122°43'921.2
2018-Feb-17 09:30N 48°11' W 122°56'1020.8
2018-Feb-17 09:00N 48°11' W 123°12'815.7
2018-Feb-17 08:30N 48°10' W 123°23'4 7.1
2018-Feb-17 07:57N 48°12' W 123°29'511.0
2018-Feb-17 07:30N 48°13' W 123°36'611.4
2018-Feb-17 07:00N 48°13' W 123°44'610.9
2018-Feb-17 06:30N 48°13' W 123°52'611.1
2018-Feb-17 05:59N 48°15' W 124°01'611.9
2018-Feb-17 05:30N 48°17' W 124°09'611.6
2018-Feb-17 05:00N 48°20' W 124°17'611.5
2018-Feb-17 04:26N 48°23' W 124°25'512.1
2018-Feb-17 04:00N 48°25' W 124°32'611.6
2018-Feb-17 03:30N 48°27' W 124°40'611.5
2018-Feb-17 03:00N 48°28' W 124°49'612.3
2018-Feb-17 02:29N 48°28' W 124°59'611.9
2018-Feb-17 02:00N 48°23' W 125°04'612.2
2018-Feb-17 01:30N 48°18' W 125°08'612.4
2018-Feb-17 00:59N 48°12' W 125°13'7212.6
2018-Feb-16 19:13N 46°60' W 125°18'1 4.0
2018-Feb-16 19:00N 46°59' W 125°17'510.6
2018-Feb-16 18:30N 46°54' W 125°17'712.4
2018-Feb-16 17:59N 46°47' W 125°17'712.5
2018-Feb-16 17:26N 46°40' W 125°17'612.8
2018-Feb-16 17:00N 46°35' W 125°17'1112.8
2018-Feb-16 16:11N 46°24' W 125°17'413.3
2018-Feb-16 15:53N 46°20' W 125°17'512.9
2018-Feb-16 15:30N 46°15' W 125°16'612.8
2018-Feb-16 15:00N 46°09' W 125°16'612.8
2018-Feb-16 14:31N 46°03' W 125°16'612.7
2018-Feb-16 14:01N 45°56' W 125°16'713.0
2018-Feb-16 13:31N 45°50' W 125°16'713.1
2018-Feb-16 13:00N 45°43' W 125°16'612.9
2018-Feb-16 12:30N 45°37' W 125°16'912.7
2018-Feb-16 11:47N 45°28' W 125°16'513.1
2018-Feb-16 11:24N 45°22' W 125°16'42212.6
2018-Feb-15 01:57N 38°23' W 124°12'612.9
2018-Feb-15 01:30N 38°18' W 124°10'613.0
2018-Feb-15 01:00N 38°12' W 124°07'713.1
2018-Feb-15 00:30N 38°06' W 124°04'612.9
2018-Feb-15 00:00N 37°59' W 124°01'713.3
2018-Feb-14 23:30N 37°53' W 123°59'713.2
2018-Feb-14 23:00N 37°47' W 123°55'713.2
2018-Feb-14 22:30N 37°42' W 123°50'913.3
2018-Feb-14 21:47N 37°34' W 123°44'2513.6
2018-Feb-14 19:57N 37°13' W 123°27'613.3
2018-Feb-14 19:30N 37°08' W 123°23'713.2
2018-Feb-14 19:00N 37°02' W 123°19'713.3
2018-Feb-14 18:30N 36°57' W 123°14'713.5
2018-Feb-14 18:00N 36°51' W 123°10'713.4
2018-Feb-14 17:30N 36°45' W 123°05'713.3
2018-Feb-14 17:00N 36°40' W 123°01'713.3
2018-Feb-14 16:30N 36°34' W 122°56'713.2
2018-Feb-14 16:00N 36°29' W 122°52'612.8
2018-Feb-14 15:30N 36°23' W 122°47'612.6
2018-Feb-14 15:00N 36°18' W 122°43'612.5
2018-Feb-14 14:30N 36°13' W 122°39'612.5
2018-Feb-14 14:00N 36°07' W 122°34'712.3
2018-Feb-14 13:28N 36°02' W 122°30'4812.6
2018-Feb-14 09:42N 35°23' W 121°56'2312.6
2018-Feb-14 07:52N 35°04' W 121°40'612.9
2018-Feb-14 07:25N 34°59' W 121°36'512.9
2018-Feb-14 07:00N 34°55' W 121°32'612.9
2018-Feb-14 06:30N 34°50' W 121°28'713.2
2018-Feb-14 06:00N 34°44' W 121°23'612.9
2018-Feb-14 05:30N 34°39' W 121°18'713.2
2018-Feb-14 05:00N 34°34' W 121°13'612.4
2018-Feb-14 04:30N 34°30' W 121°08'713.1
2018-Feb-14 04:00N 34°28' W 121°00'613.0
2018-Feb-14 03:30N 34°27' W 120°53'713.0
2018-Feb-14 02:59N 34°25' W 120°45'712.6
2018-Feb-14 02:27N 34°23' W 120°37'612.8
2018-Feb-14 01:59N 34°21' W 120°30'713.2
2018-Feb-14 01:28N 34°19' W 120°22'713.3
2018-Feb-14 00:56N 34°18' W 120°14'713.2
2018-Feb-14 00:25N 34°16' W 120°06'612.6
2018-Feb-13 23:55N 34°14' W 119°58'512.6
2018-Feb-13 23:29N 34°13' W 119°52'612.7
2018-Feb-13 23:00N 34°11' W 119°45'712.5
2018-Feb-13 22:27N 34°09' W 119°37'612.6
2018-Feb-13 22:00N 34°08' W 119°30'712.6
2018-Feb-13 21:27N 34°06' W 119°22'612.5
2018-Feb-13 20:58N 34°04' W 119°15'3610.6
2018-Feb-13 17:33N 33°46' W 118°37'110.6
2018-Feb-13 17:28N 33°46' W 118°36'510.6
2018-Feb-13 17:00N 33°43' W 118°31'510.6
2018-Feb-13 16:30N 33°41' W 118°26'510.6
2018-Feb-13 16:00N 33°38' W 118°20'510.2
2018-Feb-13 15:29N 33°38' W 118°14'510.0
2018-Feb-13 15:00N 33°42' W 118°11'3 6.3
2018-Feb-13 14:30N 33°45' W 118°13'1 2.2
2018-Feb-13 14:00N 33°45' W 118°14'0 0.0
2018-Feb-13 13:28N 33°45' W 118°14'0 0.0
2018-Feb-13 12:58N 33°45' W 118°14'0 0.0
2018-Feb-13 12:28N 33°45' W 118°14'0 0.0
2018-Feb-13 11:58N 33°45' W 118°14'0 0.0
2018-Feb-13 11:28N 33°45' W 118°14'0 0.0
2018-Feb-13 10:58N 33°45' W 118°14'0 0.0
2018-Feb-13 10:25N 33°45' W 118°14'0 0.0
2018-Feb-13 09:58N 33°45' W 118°14'0 0.0
2018-Feb-13 09:28N 33°45' W 118°14'0 0.0
2018-Feb-13 08:58N 33°45' W 118°14'0 0.1
2018-Feb-13 08:28N 33°45' W 118°14'0 0.1
2018-Feb-13 07:58N 33°45' W 118°14'0 0.0
2018-Feb-13 07:25N 33°45' W 118°14'0 0.0
2018-Feb-13 06:58N 33°45' W 118°14'0 0.1
2018-Feb-13 06:28N 33°45' W 118°14'0 0.1
2018-Feb-13 05:58N 33°45' W 118°14'0 0.0
2018-Feb-13 05:28N 33°45' W 118°14'0 0.0
2018-Feb-13 04:58N 33°45' W 118°14'0 0.0
2018-Feb-13 04:28N 33°45' W 118°14'0 0.0
2018-Feb-13 03:52N 33°45' W 118°14'0 0.0
2018-Feb-13 03:28N 33°45' W 118°14'0 0.0
2018-Feb-13 02:58N 33°45' W 118°14'0 0.0
2018-Feb-13 02:28N 33°45' W 118°14'0 0.0
2018-Feb-13 01:58N 33°45' W 118°14'0 0.0
2018-Feb-13 01:28N 33°45' W 118°14'0 0.0
2018-Feb-13 00:58N 33°45' W 118°14'0 0.0
2018-Feb-13 00:25N 33°45' W 118°14'0 0.0
2018-Feb-12 23:58N 33°45' W 118°14'0 0.0
2018-Feb-12 23:28N 33°45' W 118°14'0 0.0
2018-Feb-12 22:58N 33°45' W 118°14'0 0.0
2018-Feb-12 22:28N 33°45' W 118°14'0 0.0
2018-Feb-12 21:58N 33°45' W 118°14'0 0.0
2018-Feb-12 21:28N 33°45' W 118°14'0 0.0
2018-Feb-12 20:58N 33°45' W 118°14'0 0.0
2018-Feb-12 20:25N 33°45' W 118°14'0 0.1
2018-Feb-12 19:58N 33°45' W 118°14'0 0.1
2018-Feb-12 19:28N 33°45' W 118°14'0 0.0
2018-Feb-12 18:58N 33°45' W 118°14'0 0.1
2018-Feb-12 18:28N 33°45' W 118°14'0 0.1
2018-Feb-12 17:58N 33°45' W 118°14'0 0.0
2018-Feb-12 17:25N 33°45' W 118°14'0 0.0
2018-Feb-12 16:58N 33°45' W 118°14'0 0.0
2018-Feb-12 16:28N 33°45' W 118°14'0 0.1
2018-Feb-12 15:58N 33°45' W 118°14'0 0.1
2018-Feb-12 15:16N 33°45' W 118°14'0 0.0
2018-Feb-12 14:58N 33°45' W 118°14'0 0.0
2018-Feb-12 14:28N 33°45' W 118°14'0 0.0
2018-Feb-12 13:58N 33°45' W 118°14'0 0.0
2018-Feb-12 13:28N 33°45' W 118°14'0 0.0
2018-Feb-12 12:58N 33°45' W 118°14'0 0.0
2018-Feb-12 12:28N 33°45' W 118°14'0 0.1
2018-Feb-12 11:55N 33°45' W 118°14'0 0.1
2018-Feb-12 11:28N 33°45' W 118°14'0 0.0
2018-Feb-12 10:58N 33°45' W 118°14'0 0.0
2018-Feb-12 10:28N 33°45' W 118°14'0 0.0
2018-Feb-12 09:58N 33°45' W 118°14'0 0.0
2018-Feb-12 09:28N 33°45' W 118°14'0 0.0
2018-Feb-12 08:52N 33°45' W 118°14'0 0.0
2018-Feb-12 08:04N 33°45' W 118°14'0 0.0
2018-Feb-12 07:58N 33°45' W 118°14'0 0.0
2018-Feb-12 07:28N 33°45' W 118°14'0 0.0
2018-Feb-12 06:58N 33°45' W 118°14'0 0.1
2018-Feb-12 06:13N 33°45' W 118°14'0 0.2
2018-Feb-12 05:58N 33°45' W 118°14'0 0.0
2018-Feb-12 05:19N 33°45' W 118°14'0 0.0
2018-Feb-12 04:55N 33°45' W 118°14'0 0.0
2018-Feb-12 04:25N 33°45' W 118°14'0 0.0
2018-Feb-12 03:55N 33°45' W 118°14'0 0.0
2018-Feb-12 03:28N 33°45' W 118°14'0 0.0
2018-Feb-12 02:58N 33°45' W 118°14'0 0.1
2018-Feb-12 02:28N 33°45' W 118°14'0 0.1
2018-Feb-12 01:58N 33°45' W 118°14'0 0.1
2018-Feb-12 01:25N 33°45' W 118°14'0 0.1
2018-Feb-12 00:58N 33°45' W 118°14'0 0.0
2018-Feb-12 00:28N 33°45' W 118°14'0 0.0
2018-Feb-11 23:58N 33°45' W 118°14'0 0.1
2018-Feb-11 23:28N 33°45' W 118°14'0 0.1
2018-Feb-11 22:58N 33°45' W 118°14'0 0.0
2018-Feb-11 22:28N 33°45' W 118°14'0 0.0
2018-Feb-11 21:58N 33°45' W 118°14'0 0.0
2018-Feb-11 21:28N 33°45' W 118°14'0 0.0
2018-Feb-11 20:58N 33°45' W 118°14'0 0.0
2018-Feb-11 20:28N 33°45' W 118°14'0 0.0
2018-Feb-11 19:58N 33°45' W 118°14'0 0.0
2018-Feb-11 19:28N 33°45' W 118°14'0 0.0
2018-Feb-11 18:58N 33°45' W 118°14'0 0.0
2018-Feb-11 18:28N 33°45' W 118°14'0 0.0
2018-Feb-11 17:55N 33°45' W 118°14'0 0.0
2018-Feb-11 17:28N 33°45' W 118°14'0 0.0
2018-Feb-11 16:58N 33°45' W 118°14'0 0.0
2018-Feb-11 16:25N 33°45' W 118°14'0 0.0
2018-Feb-11 15:58N 33°45' W 118°14'0 0.0
2018-Feb-11 15:28N 33°45' W 118°14'0 0.0
2018-Feb-11 14:58N 33°45' W 118°14'0 0.0
2018-Feb-11 14:28N 33°45' W 118°14'0 0.0
2018-Feb-11 13:58N 33°45' W 118°14'0 0.0
2018-Feb-11 13:28N 33°45' W 118°14'0 0.0
2018-Feb-11 12:58N 33°45' W 118°14'0 0.0
2018-Feb-11 12:25N 33°45' W 118°14'0 0.0
2018-Feb-11 11:58N 33°45' W 118°14'0 0.0
2018-Feb-11 11:25N 33°45' W 118°14'0 0.0
2018-Feb-11 10:58N 33°45' W 118°14'0 0.0
2018-Feb-11 10:22N 33°45' W 118°14'0 0.0
2018-Feb-11 09:55N 33°45' W 118°14'0 0.0
2018-Feb-11 09:25N 33°45' W 118°14'0 0.0
2018-Feb-11 08:55N 33°45' W 118°14'0 0.1
2018-Feb-11 08:28N 33°45' W 118°14'0 0.1
2018-Feb-11 07:58N 33°45' W 118°14'0 0.0
2018-Feb-11 07:25N 33°45' W 118°14'0 0.0
2018-Feb-11 06:58N 33°45' W 118°14'0 0.0
2018-Feb-11 06:28N 33°45' W 118°14'0 0.0
2018-Feb-11 05:58N 33°45' W 118°14'0 0.0
2018-Feb-11 05:28N 33°45' W 118°14'0 0.0
2018-Feb-11 04:55N 33°45' W 118°14'0 0.0
2018-Feb-11 04:28N 33°45' W 118°14'0 0.1
2018-Feb-11 03:55N 33°45' W 118°14'0 0.1
2018-Feb-11 03:28N 33°45' W 118°14'0 0.0
2018-Feb-11 02:58N 33°45' W 118°14'0 0.0
2018-Feb-11 02:28N 33°45' W 118°14'0 0.0
2018-Feb-11 01:58N 33°45' W 118°14'0 0.0
2018-Feb-11 01:28N 33°45' W 118°14'0 0.0
2018-Feb-11 00:58N 33°45' W 118°14'0 0.0
2018-Feb-11 00:28N 33°45' W 118°14'0 0.0
2018-Feb-10 23:58N 33°45' W 118°14'0 0.0
2018-Feb-10 23:28N 33°45' W 118°14'0 0.0
2018-Feb-10 22:58N 33°45' W 118°14'0 0.0
2018-Feb-10 22:28N 33°45' W 118°14'0 0.0
2018-Feb-10 21:55N 33°45' W 118°14'0 0.0
2018-Feb-10 21:28N 33°45' W 118°14'0 0.1
2018-Feb-10 20:58N 33°45' W 118°14'0 0.1
2018-Feb-10 20:25N 33°45' W 118°14'0 0.1
2018-Feb-10 19:58N 33°45' W 118°14'0 0.1
2018-Feb-10 19:28N 33°45' W 118°14'0 0.0
2018-Feb-10 18:58N 33°45' W 118°14'0 0.0
2018-Feb-10 18:28N 33°45' W 118°14'0 0.0
2018-Feb-10 17:58N 33°45' W 118°14'0 0.0
2018-Feb-10 17:28N 33°45' W 118°14'0 0.0
2018-Feb-10 16:58N 33°45' W 118°14'0 0.0
2018-Feb-10 16:28N 33°45' W 118°14'0 0.0
2018-Feb-10 15:58N 33°45' W 118°14'0 0.0
2018-Feb-10 15:28N 33°45' W 118°14'0 0.0
2018-Feb-10 14:58N 33°45' W 118°14'0 0.0
2018-Feb-10 14:28N 33°45' W 118°14'0 0.1
2018-Feb-10 14:00N 33°45' W 118°14'1 2.0
2018-Feb-10 13:30N 33°45' W 118°13'4 7.7
2018-Feb-10 13:00N 33°41' W 118°11'3 7.0
2018-Feb-10 12:30N 33°38' W 118°12'3 5.7
2018-Feb-10 12:00N 33°37' W 118°15'3 6.4
2018-Feb-10 11:29N 33°36' W 118°19'4 7.6
2018-Feb-10 11:00N 33°37' W 118°23'5 8.9
2018-Feb-10 10:29N 33°39' W 118°28'4 8.5
2018-Feb-10 10:00N 33°41' W 118°32'4 8.7
2018-Feb-10 09:30N 33°43' W 118°37'4 8.6
2018-Feb-10 09:00N 33°45' W 118°41'510.4
2018-Feb-10 08:30N 33°48' W 118°47'611.4
2018-Feb-10 08:00N 33°51' W 118°53'611.4
2018-Feb-10 07:30N 33°54' W 118°59'611.7
2018-Feb-10 07:00N 33°57' W 119°05'611.7
2018-Feb-10 06:29N 33°60' W 119°11'511.2
2018-Feb-10 06:00N 34°02' W 119°17'612.1
2018-Feb-10 05:30N 34°04' W 119°24'612.8
2018-Feb-10 05:00N 34°06' W 119°31'713.0
2018-Feb-10 04:30N 34°07' W 119°39'713.8
2018-Feb-10 04:00N 34°09' W 119°47'713.8
2018-Feb-10 03:30N 34°11' W 119°55'713.6
2018-Feb-10 03:00N 34°13' W 120°03'713.6
2018-Feb-10 02:31N 34°15' W 120°11'713.3
2018-Feb-10 02:00N 34°16' W 120°19'713.4
2018-Feb-10 01:30N 34°18' W 120°26'611.6
2018-Feb-10 00:58N 34°20' W 120°34'4 7.9
2018-Feb-10 00:29N 34°21' W 120°38'713.6
2018-Feb-09 23:59N 34°23' W 120°46'714.2
2018-Feb-09 23:30N 34°24' W 120°54'815.0
2018-Feb-09 23:00N 34°24' W 121°03'415.2
2018-Feb-09 22:44N 34°24' W 121°08'4814.8
2018-Feb-09 19:30N 34°24' W 122°06'1514.7
2018-Feb-09 18:30N 34°24' W 122°24'  

Dump ship's entire track history